Terminal Aerodrome Forecast
Issued by NWS

Home | Current Version | Previous Version | Text Only | Print | Product List | Glossary On
Versions: 1 2 3 4 5 6 7 8 9 10 11 12 13 14 15 16 17 18 19 20 21 22 23 24 25
000
FTUS46 KSEW 160131 AAA
TAFOLM
TAF AMD
KOLM 160131Z 1602/1624 20006KT P6SM VCSH FEW030 BKN100
     FM160600 VRB04KT P6SM SCT008 BKN020
     FM160900 VRB03KT 5SM BR OVC012
     FM161800 18005KT P6SM BKN025
     FM161900 17007KT P6SM BKN030 BKN050=

USA.gov is the U.S. government's official web portal to all federal, state and local government web resources and services.